createdAt,value
2022-11-02T05:01:15.765Z,10.30
2022-11-02T05:05:28.427Z,10.34
2022-11-02T05:09:43.576Z,10.39
2022-11-02T05:13:57.425Z,10.34
2022-11-02T05:18:11.629Z,10.39
2022-11-02T05:22:25.637Z,10.51
2022-11-02T05:26:37.865Z,10.44
2022-11-02T05:30:50.544Z,10.51
2022-11-02T05:35:02.757Z,10.45
2022-11-02T05:39:15.366Z,10.52
2022-11-02T05:43:27.253Z,10.55
2022-11-02T05:47:39.434Z,10.49
2022-11-02T05:51:50.974Z,10.47
2022-11-02T05:56:04.573Z,10.47
2022-11-02T06:00:16.348Z,10.42
2022-11-02T06:04:27.882Z,10.36
2022-11-02T06:08:39.795Z,10.34
2022-11-02T06:12:59.033Z,10.39
2022-11-02T06:17:10.540Z,10.36
2022-11-02T06:21:22.053Z,10.30
2022-11-02T06:25:33.589Z,10.33
2022-11-02T06:29:45.112Z,10.30
2022-11-02T06:33:56.619Z,10.28
2022-11-02T06:38:08.111Z,10.23
2022-11-02T06:42:19.609Z,10.24
2022-11-02T06:46:31.151Z,10.30
2022-11-02T06:50:42.740Z,10.30
2022-11-02T06:54:54.474Z,10.35
2022-11-02T06:59:06.126Z,10.43
2022-11-02T07:03:18.500Z,10.40
2022-11-02T07:07:30.062Z,10.47
2022-11-02T07:11:41.633Z,10.51
2022-11-02T07:15:54.346Z,10.48
2022-11-02T07:20:06.577Z,10.55
2022-11-02T07:24:18.090Z,10.54
2022-11-02T07:28:29.601Z,10.64
2022-11-02T07:32:42.245Z,10.70
2022-11-02T07:36:55.618Z,10.68
2022-11-02T07:41:07.136Z,10.68
2022-11-02T07:45:18.632Z,10.76
2022-11-02T07:49:30.180Z,10.90
2022-11-02T07:53:41.804Z,11.04
2022-11-02T07:57:55.301Z,11.12
2022-11-02T08:02:09.390Z,11.13
2022-11-02T08:06:20.924Z,11.13
2022-11-02T08:10:37.511Z,11.09
2022-11-02T08:14:51.574Z,11.22
2022-11-02T08:19:03.127Z,11.19
2022-11-02T08:23:16.848Z,11.19
2022-11-02T08:27:28.334Z,11.31
2022-11-02T08:31:39.957Z,11.42
2022-11-02T08:35:52.176Z,11.37
2022-11-02T08:40:03.938Z,11.72
2022-11-02T08:44:15.484Z,12.10
2022-11-02T08:48:27.570Z,12.37
2022-11-02T08:52:40.694Z,12.34
2022-11-02T08:56:52.522Z,12.34
2022-11-02T09:01:04.272Z,12.24
2022-11-02T09:05:16.148Z,12.16
2022-11-02T09:09:28.118Z,11.93
2022-11-02T09:13:39.889Z,11.99
2022-11-02T09:17:51.537Z,12.01
2022-11-02T09:22:05.785Z,12.01
2022-11-02T09:26:17.581Z,12.04
2022-11-02T09:30:29.797Z,12.02
2022-11-02T09:34:41.498Z,12.05
2022-11-02T09:38:53.358Z,12.11
2022-11-02T09:43:22.795Z,12.14
2022-11-02T09:48:16.140Z,12.08
2022-11-02T09:52:41.338Z,12.19
2022-11-02T09:56:59.775Z,12.56
2022-11-02T10:01:41.407Z,12.77
2022-11-02T10:06:04.027Z,13.04
2022-11-02T10:10:23.004Z,13.37
2022-11-02T10:14:39.375Z,13.68
2022-11-02T10:18:58.160Z,13.81
2022-11-02T10:23:33.172Z,14.03
2022-11-02T10:27:52.329Z,14.21
2022-11-02T10:32:09.022Z,14.27
2022-11-02T10:37:09.935Z,14.09
2022-11-02T10:41:34.205Z,14.11
2022-11-02T10:46:10.982Z,13.73
2022-11-02T10:50:41.338Z,13.44
2022-11-02T10:54:53.324Z,13.26
2022-11-02T10:59:20.417Z,12.97
2022-11-02T11:03:32.092Z,12.85
2022-11-02T11:07:44.772Z,12.71
2022-11-02T11:12:05.801Z,12.69
2022-11-02T11:16:40.075Z,12.66
2022-11-02T11:20:55.986Z,12.61
2022-11-02T11:25:10.545Z,12.59
2022-11-02T11:29:22.937Z,12.63
2022-11-02T11:33:48.396Z,12.65
2022-11-02T11:38:21.548Z,12.65
2022-11-02T11:42:37.370Z,12.74
2022-11-02T11:46:58.955Z,12.90
2022-11-02T11:51:35.275Z,13.19
2022-11-02T11:55:58.567Z,13.47
2022-11-02T12:00:30.412Z,13.39
2022-11-02T12:04:41.966Z,13.22
2022-11-02T12:09:14.249Z,13.12
2022-11-02T12:13:55.553Z,13.41
2022-11-02T12:18:28.572Z,13.66
2022-11-02T12:23:14.728Z,14.11
2022-11-02T12:28:09.144Z,14.48
2022-11-02T12:32:52.978Z,14.78
2022-11-02T12:37:45.230Z,14.98
2022-11-02T12:42:11.731Z,15.09
2022-11-02T12:46:47.719Z,14.93
2022-11-02T12:51:12.368Z,15.06
2022-11-02T12:55:38.157Z,15.04
2022-11-02T12:59:54.790Z,15.05
2022-11-02T13:04:12.310Z,15.01
2022-11-02T13:08:44.146Z,14.87
2022-11-02T13:12:59.763Z,14.69
2022-11-02T13:17:20.578Z,14.86
2022-11-02T13:21:44.081Z,14.92
2022-11-02T13:26:02.353Z,14.95
2022-11-02T13:30:16.019Z,14.74
2022-11-02T13:34:36.391Z,14.75
2022-11-02T13:39:00.624Z,14.81
2022-11-02T13:43:39.508Z,14.82
2022-11-02T13:48:04.225Z,14.69
2022-11-02T13:52:34.822Z,14.65
2022-11-02T13:56:51.445Z,14.54
2022-11-02T14:01:06.382Z,14.60
2022-11-02T14:05:29.189Z,14.53
2022-11-02T14:09:44.506Z,14.53
2022-11-02T14:13:58.737Z,14.54
2022-11-02T14:18:15.631Z,14.50
2022-11-02T14:22:31.021Z,14.50
2022-11-02T14:26:56.815Z,14.42
2022-11-02T14:31:17.569Z,14.31
2022-11-02T14:35:49.379Z,14.40
2022-11-02T14:40:22.450Z,14.37
2022-11-02T14:44:51.977Z,14.21
2022-11-02T14:49:05.489Z,14.23
2022-11-02T14:53:25.063Z,14.18
2022-11-02T14:57:50.121Z,14.13
2022-11-02T15:02:15.773Z,14.06
2022-11-02T15:06:29.091Z,13.92
2022-11-02T15:10:43.630Z,13.90
2022-11-02T15:14:58.948Z,13.79
2022-11-02T15:19:38.485Z,13.70
2022-11-02T15:23:55.402Z,13.61
2022-11-02T15:28:20.152Z,13.51
2022-11-02T15:32:39.058Z,13.41
2022-11-02T15:36:50.898Z,13.31
2022-11-02T15:41:05.978Z,13.19
2022-11-02T15:45:49.299Z,13.09
2022-11-02T15:50:13.627Z,12.90
2022-11-02T15:54:45.731Z,12.80
2022-11-02T15:59:16.293Z,12.68
2022-11-02T16:03:27.803Z,12.62
2022-11-02T16:08:09.284Z,12.49
2022-11-02T16:12:24.749Z,12.25
2022-11-02T16:16:47.287Z,12.01
2022-11-02T16:21:02.012Z,11.79
2022-11-02T16:25:26.990Z,11.55
2022-11-02T16:29:40.476Z,11.34
2022-11-02T16:33:54.354Z,11.16
2022-11-02T16:38:06.451Z,10.94
2022-11-02T16:42:23.326Z,10.84
2022-11-02T16:46:47.734Z,10.72
2022-11-02T16:51:22.885Z,10.60
2022-11-02T16:55:44.268Z,10.51
2022-11-02T16:59:59.039Z,10.39
2022-11-02T17:04:22.826Z,10.28
2022-11-02T17:08:36.677Z,10.15
2022-11-02T17:12:49.071Z,10.01
2022-11-02T17:17:02.176Z,9.85
2022-11-02T17:21:13.733Z,9.72
2022-11-02T17:25:31.009Z,9.65
2022-11-02T17:29:42.653Z,9.63
2022-11-02T17:33:56.533Z,9.56
2022-11-02T17:38:09.154Z,9.45
2022-11-02T17:42:39.221Z,9.35
2022-11-02T17:46:50.703Z,9.31
2022-11-02T17:51:02.285Z,9.25
2022-11-02T17:55:16.353Z,9.12
2022-11-02T17:59:27.848Z,9.09
2022-11-02T18:03:39.581Z,9.05
2022-11-02T18:07:51.515Z,8.91
2022-11-02T18:12:03.158Z,8.84
2022-11-02T18:16:14.798Z,8.80
2022-11-02T18:20:27.868Z,8.75
2022-11-02T18:24:39.364Z,8.63
2022-11-02T18:28:50.853Z,8.57
2022-11-02T18:33:03.709Z,8.52
2022-11-02T18:37:15.206Z,8.49
2022-11-02T18:41:34.699Z,8.42
2022-11-02T18:45:46.272Z,8.38
2022-11-02T18:49:57.999Z,8.33
2022-11-02T18:54:09.501Z,8.23
2022-11-02T18:58:21.089Z,8.17
2022-11-02T19:02:33.255Z,8.11
2022-11-02T19:07:03.370Z,8.05
2022-11-02T19:11:14.877Z,8.03
2022-11-02T19:15:26.360Z,7.98
2022-11-02T19:19:40.837Z,8.01
2022-11-02T19:23:52.343Z,7.90
2022-11-02T19:28:04.600Z,7.83
2022-11-02T19:32:17.075Z,7.85
2022-11-02T19:36:28.685Z,7.79
2022-11-02T19:40:40.200Z,7.78
2022-11-02T19:44:51.772Z,7.69
2022-11-02T19:49:03.417Z,7.66
2022-11-02T19:53:14.943Z,7.65
2022-11-02T19:57:32.122Z,7.61
2022-11-02T20:01:46.869Z,7.54
2022-11-02T20:06:07.363Z,7.55
2022-11-02T20:10:18.998Z,7.50
2022-11-02T20:14:30.987Z,7.44
2022-11-02T20:18:44.260Z,7.48
2022-11-02T20:22:55.852Z,7.50
2022-11-02T20:27:08.041Z,7.45
2022-11-02T20:31:26.065Z,7.44
2022-11-02T20:35:38.871Z,7.42
2022-11-02T20:39:50.387Z,7.36
2022-11-02T20:44:01.931Z,7.41
2022-11-02T20:48:13.515Z,7.37
2022-11-02T20:52:25.089Z,7.29
2022-11-02T20:56:36.588Z,7.30
2022-11-02T21:00:48.466Z,7.31
2022-11-02T21:04:59.993Z,7.23
2022-11-02T21:09:12.293Z,7.21
2022-11-02T21:13:42.640Z,7.12
2022-11-02T21:17:54.162Z,7.13
2022-11-02T21:22:05.701Z,7.10
2022-11-02T21:26:17.356Z,7.12
2022-11-02T21:30:30.968Z,7.09
2022-11-02T21:34:42.491Z,7.04
2022-11-02T21:38:54.312Z,7.02
2022-11-02T21:43:06.082Z,6.96
2022-11-02T21:47:17.913Z,6.98
2022-11-02T21:51:29.501Z,6.98
2022-11-02T21:55:41.229Z,6.93
2022-11-02T21:59:52.950Z,6.97
2022-11-02T22:04:31.467Z,6.96
2022-11-02T22:08:43.369Z,6.99
2022-11-02T22:13:13.519Z,6.84
2022-11-02T22:21:57.724Z,6.85
2022-11-02T22:26:10.762Z,6.81
